Time;durP1;ratioP1;P1;durP2;ratioP2;P2;SDS_P1;SDS_P2;PMS_P1;PMS_P2;Temp;Humidity;BMP_temperature;BMP_pressure;BME280_temperature;BME280_humidity;BME280_pressure;Samples;Min_cycle;Max_cycle;Signal;HPM_P1;HPM_P2
2022/05/29 00:01:52;;;;;;;11.48;3.22;;;11.10;99.90;;;;;;5031999;28;20034;-72
2022/05/29 00:04:19;;;;;;;13.57;3.42;;;11.00;99.90;;;;;;5014913;28;20037;-72
2022/05/29 00:06:47;;;;;;;9.85;2.80;;;11.00;99.90;;;;;;5032192;28;20505;-73
2022/05/29 00:09:17;;;;;;;14.48;3.50;;;11.10;99.90;;;;;;5048290;28;20045;-73
2022/05/29 00:11:43;;;;;;;12.52;3.08;;;11.10;99.90;;;;;;5015415;28;20046;-72
2022/05/29 00:14:09;;;;;;;13.10;3.00;;;11.00;99.90;;;;;;5014888;28;20544;-73
2022/05/29 00:16:34;;;;;;;10.00;2.60;;;11.00;99.90;;;;;;5031751;28;20046;-73
2022/05/29 00:19:00;;;;;;;11.63;3.28;;;11.00;99.90;;;;;;5030612;28;20517;-73
2022/05/29 00:21:27;;;;;;;9.48;3.05;;;11.00;99.90;;;;;;5031483;28;20034;-73
2022/05/29 00:23:53;;;;;;;8.77;2.92;;;11.00;99.90;;;;;;5024231;28;20088;-73
2022/05/29 00:26:20;;;;;;;12.10;3.20;;;11.00;99.90;;;;;;5031654;28;20042;-73
2022/05/29 00:28:46;;;;;;;9.27;2.70;;;10.90;99.90;;;;;;5030816;28;20510;-73
2022/05/29 00:31:13;;;;;;;10.40;3.20;;;11.00;99.90;;;;;;5047797;28;20494;-73
2022/05/29 00:33:39;;;;;;;10.73;3.33;;;10.90;99.90;;;;;;5015176;28;20034;-73
2022/05/29 00:36:08;;;;;;;12.65;3.63;;;10.90;99.90;;;;;;5031645;28;20047;-73
2022/05/29 00:38:38;;;;;;;9.10;2.97;;;10.90;99.90;;;;;;5030564;28;20053;-73
2022/05/29 00:41:18;;;;;;;9.77;2.78;;;10.90;99.90;;;;;;5031501;28;20474;-73
2022/05/29 00:44:04;;;;;;;11.20;2.70;;;10.80;99.90;;;;;;5030970;28;20124;-73
2022/05/29 00:46:34;;;;;;;9.85;3.05;;;10.80;99.90;;;;;;5031395;28;20163;-73
2022/05/29 00:49:03;;;;;;;10.95;3.20;;;10.80;99.90;;;;;;5030876;28;20045;-73
2022/05/29 00:51:29;;;;;;;9.48;2.72;;;10.70;99.90;;;;;;5013869;28;20091;-73
2022/05/29 00:53:55;;;;;;;12.27;2.60;;;10.70;99.90;;;;;;5032962;28;20037;-73
2022/05/29 00:56:21;;;;;;;10.95;2.72;;;10.70;99.90;;;;;;5035116;28;20072;-73
2022/05/29 00:58:46;;;;;;;9.45;2.75;;;10.80;99.90;;;;;;5035047;28;20045;-73
2022/05/29 01:01:12;;;;;;;11.20;2.80;;;10.80;99.90;;;;;;5017648;28;20033;-72
2022/05/29 01:03:38;;;;;;;10.23;2.80;;;10.70;99.90;;;;;;5034202;28;20034;-73
2022/05/29 01:06:03;;;;;;;12.80;3.05;;;10.70;99.90;;;;;;5018501;28;20474;-73
2022/05/29 01:08:36;;;;;;;12.30;3.03;;;10.80;99.90;;;;;;5034899;28;20041;-73
2022/05/29 01:11:19;;;;;;;10.38;2.63;;;10.80;99.90;;;;;;5034103;28;20490;-73
2022/05/29 01:14:15;;;;;;;10.13;2.33;;;10.80;99.90;;;;;;5034309;28;20033;-73
2022/05/29 01:16:55;;;;;;;9.68;2.58;;;10.70;99.90;;;;;;5018295;28;20049;-73
2022/05/29 01:19:33;;;;;;;10.52;2.75;;;10.70;99.90;;;;;;5034751;28;20041;-73
2022/05/29 01:22:08;;;;;;;10.13;2.85;;;10.70;99.90;;;;;;5033521;28;20048;-73
2022/05/29 01:24:33;;;;;;;7.80;2.33;;;10.70;99.90;;;;;;5040928;28;20045;-73
2022/05/29 01:27:36;;;;;;;9.10;2.30;;;10.60;99.90;;;;;;5050108;28;20102;-72
2022/05/29 01:30:11;;;;;;;8.05;2.38;;;10.60;99.90;;;;;;5034784;28;20091;-73
2022/05/29 01:32:54;;;;;;;10.88;2.85;;;10.50;99.90;;;;;;5017675;28;20037;-73
2022/05/29 01:35:44;;;;;;;10.48;2.63;;;10.50;99.90;;;;;;5033773;28;20129;-73
2022/05/29 01:38:27;;;;;;;10.35;2.85;;;10.50;99.90;;;;;;5017345;28;20555;-73
2022/05/29 01:41:03;;;;;;;7.45;2.45;;;10.50;99.90;;;;;;5034261;28;20045;-73
2022/05/29 01:43:42;;;;;;;9.05;2.90;;;10.50;99.90;;;;;;5033865;28;20045;-73
2022/05/29 01:46:17;;;;;;;12.13;3.45;;;10.40;99.90;;;;;;5034156;28;20042;-73
2022/05/29 01:48:52;;;;;;;11.13;2.67;;;10.40;99.90;;;;;;5034198;28;20046;-73
2022/05/29 01:51:35;;;;;;;10.85;3.40;;;10.40;99.90;;;;;;5032667;28;20502;-72
2022/05/29 01:54:10;;;;;;;12.20;3.00;;;10.50;99.90;;;;;;5015968;28;20047;-72
2022/05/29 01:56:44;;;;;;;9.63;2.80;;;10.70;99.90;;;;;;5034143;28;20041;-73
2022/05/29 01:59:15;;;;;;;10.50;2.40;;;10.70;99.90;;;;;;5013661;28;20042;-73
2022/05/29 02:01:47;;;;;;;13.18;2.47;;;10.70;99.90;;;;;;5013013;28;20043;-73
2022/05/29 02:04:19;;;;;;;12.48;2.97;;;10.70;99.90;;;;;;5033179;28;20060;-73
2022/05/29 02:09:38;;;;;;;10.90;2.80;;;10.60;99.90;;;;;;5050309;28;20049;-73
2022/05/29 02:12:10;;;;;;;11.05;3.10;;;10.50;99.90;;;;;;5015008;28;20448;-72
2022/05/29 02:14:40;;;;;;;10.02;3.00;;;10.50;99.90;;;;;;5035250;28;20041;-73
2022/05/29 02:17:13;;;;;;;10.82;2.80;;;10.50;99.90;;;;;;5034947;28;20387;-73
2022/05/29 02:19:48;;;;;;;9.48;2.70;;;10.50;99.90;;;;;;5040028;28;20085;-73
2022/05/29 02:22:27;;;;;;;11.13;2.83;;;10.40;99.90;;;;;;5029265;28;20431;-73
2022/05/29 02:24:56;;;;;;;12.30;2.63;;;10.50;99.90;;;;;;5014293;28;20037;-73
2022/05/29 02:27:33;;;;;;;9.88;2.67;;;10.50;99.90;;;;;;5023361;28;20108;-72
2022/05/29 02:30:01;;;;;;;8.88;2.65;;;10.50;99.90;;;;;;5045534;28;20049;-74
2022/05/29 02:32:39;;;;;;;9.63;2.80;;;10.50;99.90;;;;;;5013860;28;20133;-74
2022/05/29 02:35:24;;;;;;;13.77;2.88;;;10.50;99.90;;;;;;5019826;28;20045;-74
2022/05/29 02:38:12;;;;;;;8.63;2.55;;;10.40;99.90;;;;;;5015916;28;20532;-72
2022/05/29 02:40:52;;;;;;;11.15;2.97;;;10.50;99.90;;;;;;5031685;28;20383;-72
2022/05/29 02:43:42;;;;;;;12.48;2.70;;;10.50;99.90;;;;;;5031690;28;20077;-72
2022/05/29 02:46:22;;;;;;;11.77;3.17;;;10.40;99.90;;;;;;5015698;28;20037;-72
2022/05/29 02:48:55;;;;;;;12.88;3.28;;;10.40;99.90;;;;;;5031837;28;20041;-72
2022/05/29 02:51:31;;;;;;;8.35;2.80;;;10.40;99.90;;;;;;5048878;28;20103;-72
2022/05/29 02:53:57;;;;;;;12.25;3.08;;;10.40;99.90;;;;;;5031566;28;20398;-72
2022/05/29 02:56:22;;;;;;;11.43;3.33;;;10.40;99.90;;;;;;5032236;28;20034;-72
2022/05/29 02:58:51;;;;;;;12.90;3.25;;;10.40;99.90;;;;;;5030896;28;20038;-72
2022/05/29 03:01:38;;;;;;;13.18;3.20;;;10.40;99.90;;;;;;5030405;28;20052;-72
2022/05/29 03:04:23;;;;;;;11.57;2.80;;;10.40;99.90;;;;;;5023316;28;20040;-73
2022/05/29 03:07:03;;;;;;;13.07;3.00;;;10.40;99.90;;;;;;5028657;28;20046;-73
2022/05/29 03:09:44;;;;;;;10.60;3.70;;;10.50;99.90;;;;;;5040276;28;20049;-73
2022/05/29 03:12:45;;;;;;;9.45;2.90;;;10.40;99.90;;;;;;5047007;28;20056;-75
2022/05/29 03:15:51;;;;;;;14.18;3.53;;;10.40;99.90;;;;;;5022470;28;20053;-75
2022/05/29 03:18:34;;;;;;;14.32;3.22;;;10.40;99.90;;;;;;4996438;28;20490;-74
2022/05/29 03:21:10;;;;;;;11.00;2.92;;;10.60;99.90;;;;;;5024385;28;20042;-74
2022/05/29 03:23:52;;;;;;;10.80;2.90;;;10.60;99.90;;;;;;5032709;28;20042;-74
2022/05/29 03:26:43;;;;;;;11.27;2.90;;;10.50;99.90;;;;;;5033255;28;20103;-74
2022/05/29 03:29:11;;;;;;;13.82;3.38;;;10.60;99.90;;;;;;5024517;28;20090;-74
2022/05/29 03:31:40;;;;;;;12.32;2.80;;;10.60;99.90;;;;;;5038081;28;20083;-75
2022/05/29 03:34:07;;;;;;;9.77;2.40;;;10.60;99.90;;;;;;5013080;28;20049;-74
2022/05/29 03:36:33;;;;;;;9.07;2.40;;;10.60;99.90;;;;;;5031382;28;20081;-74
2022/05/29 03:38:59;;;;;;;11.95;3.20;;;10.50;99.90;;;;;;5029225;28;20083;-74
2022/05/29 03:41:27;;;;;;;14.43;2.65;;;10.40;99.90;;;;;;5028348;28;20037;-74
2022/05/29 03:43:53;;;;;;;9.15;2.58;;;10.40;99.90;;;;;;5031464;28;20486;-75
2022/05/29 03:46:18;;;;;;;11.30;2.28;;;10.40;99.90;;;;;;5045689;28;20063;-75
2022/05/29 03:48:44;;;;;;;9.52;2.53;;;10.50;99.90;;;;;;5015107;28;20417;-73
2022/05/29 03:51:09;;;;;;;7.78;2.42;;;10.50;99.90;;;;;;5029983;28;20037;-74
2022/05/29 03:53:35;;;;;;;9.23;2.72;;;10.50;99.90;;;;;;5015509;28;20041;-73
2022/05/29 03:56:01;;;;;;;9.73;2.30;;;10.50;99.90;;;;;;5029633;28;20128;-73
2022/05/29 03:58:27;;;;;;;12.32;3.08;;;10.50;99.90;;;;;;5019212;28;20515;-74
2022/05/29 04:00:53;;;;;;;12.13;2.85;;;10.50;99.90;;;;;;5023969;28;20068;-74
2022/05/29 04:03:19;;;;;;;11.32;2.63;;;10.50;99.90;;;;;;5031094;28;20520;-74
2022/05/29 04:05:45;;;;;;;14.05;2.80;;;10.60;99.90;;;;;;5038480;28;20175;-74
2022/05/29 04:13:42;;;;;;;10.30;2.45;;;10.60;99.90;;;;;;5040246;28;20045;-74
2022/05/29 04:16:08;;;;;;;8.10;2.65;;;10.60;99.90;;;;;;5029682;28;20053;-74
2022/05/29 04:18:33;;;;;;;9.20;2.45;;;10.60;99.90;;;;;;5031500;28;20046;-73
2022/05/29 04:20:59;;;;;;;7.72;1.98;;;10.60;99.90;;;;;;5021422;28;20045;-74
2022/05/29 04:23:25;;;;;;;12.75;2.78;;;10.60;99.90;;;;;;5039007;28;20401;-74
2022/05/29 04:25:51;;;;;;;8.88;2.70;;;10.70;99.90;;;;;;5046229;28;20034;-74
2022/05/29 04:28:17;;;;;;;7.55;2.70;;;10.60;99.90;;;;;;5034439;28;20474;-74
2022/05/29 04:30:43;;;;;;;9.07;2.33;;;10.60;99.90;;;;;;5019754;28;20086;-74
2022/05/29 04:33:09;;;;;;;8.75;2.15;;;10.60;99.90;;;;;;5018139;28;20124;-74
2022/05/29 04:35:42;;;;;;;9.80;2.13;;;10.60;99.90;;;;;;5033301;28;20124;-74
2022/05/29 04:38:09;;;;;;;10.95;3.17;;;10.60;99.90;;;;;;5018173;28;20088;-73
2022/05/29 04:40:43;;;;;;;8.23;2.22;;;10.70;99.90;;;;;;5033718;28;20467;-74
2022/05/29 04:43:10;;;;;;;10.38;2.70;;;10.70;99.90;;;;;;5034856;28;20045;-74
2022/05/29 04:45:38;;;;;;;10.88;2.25;;;10.70;99.90;;;;;;5015779;28;20030;-74
2022/05/29 04:48:04;;;;;;;10.77;2.00;;;10.70;99.90;;;;;;5018194;28;20060;-74
2022/05/29 04:50:30;;;;;;;8.85;2.03;;;10.70;99.90;;;;;;5033303;28;20131;-73
2022/05/29 04:52:55;;;;;;;8.80;2.13;;;10.60;99.90;;;;;;5034070;28;20128;-74
2022/05/29 04:55:21;;;;;;;10.13;2.10;;;10.60;99.90;;;;;;5033739;28;20065;-74
2022/05/29 04:57:47;;;;;;;7.85;1.90;;;10.60;99.90;;;;;;5034104;28;20045;-74
2022/05/29 05:00:13;;;;;;;11.98;2.08;;;10.60;99.90;;;;;;5032841;28;20063;-74
2022/05/29 05:02:39;;;;;;;10.32;2.00;;;10.60;99.90;;;;;;5033449;28;20367;-73
2022/05/29 05:05:05;;;;;;;9.20;2.40;;;10.70;99.90;;;;;;5034180;28;20125;-73
2022/05/29 05:07:31;;;;;;;12.02;2.25;;;10.60;99.90;;;;;;5046209;28;20038;-74
2022/05/29 05:09:56;;;;;;;11.68;2.00;;;10.70;99.90;;;;;;5025341;28;20037;-73
2022/05/29 05:12:22;;;;;;;8.70;2.13;;;10.60;99.90;;;;;;5047832;28;20128;-73
2022/05/29 05:14:47;;;;;;;9.63;2.35;;;10.60;99.90;;;;;;5020930;28;20034;-73
2022/05/29 05:17:13;;;;;;;9.05;2.22;;;10.60;99.90;;;;;;5023414;28;20042;-73
2022/05/29 05:19:39;;;;;;;14.30;2.60;;;10.60;99.90;;;;;;5033678;28;20049;-73
2022/05/29 05:22:08;;;;;;;11.40;1.88;;;10.70;99.90;;;;;;5032582;28;20124;-73
2022/05/29 05:24:35;;;;;;;9.98;1.92;;;10.70;99.90;;;;;;5033983;28;20079;-73
2022/05/29 05:27:00;;;;;;;10.18;2.30;;;10.70;99.90;;;;;;5033392;28;20033;-73
2022/05/29 05:29:26;;;;;;;13.65;2.15;;;10.70;99.90;;;;;;5049518;28;20056;-73
2022/05/29 05:31:51;;;;;;;14.63;2.53;;;10.70;99.90;;;;;;5029021;28;20042;-73
2022/05/29 05:34:17;;;;;;;10.23;2.08;;;10.80;99.90;;;;;;5033727;28;20037;-73
2022/05/29 05:36:43;;;;;;;10.85;2.42;;;10.80;99.90;;;;;;5033817;28;20080;-73
2022/05/29 05:39:08;;;;;;;12.18;2.40;;;10.80;99.90;;;;;;5027503;28;20061;-74
2022/05/29 05:41:35;;;;;;;11.50;2.08;;;10.80;99.90;;;;;;5031356;28;20041;-74
2022/05/29 05:44:01;;;;;;;9.98;2.35;;;10.90;99.90;;;;;;5033639;28;20474;-74
2022/05/29 05:46:27;;;;;;;11.43;1.95;;;10.90;99.90;;;;;;5016727;28;20152;-74
2022/05/29 05:48:53;;;;;;;9.95;2.30;;;10.90;99.90;;;;;;5032857;28;20052;-74
2022/05/29 05:51:18;;;;;;;9.60;2.85;;;10.90;99.90;;;;;;5031606;28;20037;-74
2022/05/29 05:53:44;;;;;;;10.18;2.20;;;10.90;99.90;;;;;;5032390;28;20080;-74
2022/05/29 05:56:13;;;;;;;9.85;2.50;;;10.90;99.90;;;;;;5033301;28;20187;-73
2022/05/29 05:58:39;;;;;;;9.77;2.35;;;10.80;99.90;;;;;;5033381;28;20098;-74
2022/05/29 06:01:09;;;;;;;10.82;2.10;;;10.90;99.90;;;;;;5025281;28;20123;-73
2022/05/29 06:03:35;;;;;;;10.10;1.85;;;10.90;99.90;;;;;;5015560;28;20482;-73
2022/05/29 06:06:00;;;;;;;12.77;2.28;;;10.90;99.90;;;;;;5030256;28;20045;-74
2022/05/29 06:08:26;;;;;;;14.40;2.10;;;10.90;99.90;;;;;;5031477;28;20124;-73
2022/05/29 06:10:52;;;;;;;12.82;2.25;;;10.80;99.90;;;;;;5032604;28;20538;-74
2022/05/29 06:13:18;;;;;;;13.63;2.20;;;10.80;99.90;;;;;;5024136;28;20048;-74
2022/05/29 06:15:46;;;;;;;10.95;2.20;;;10.80;99.90;;;;;;5014710;28;20045;-73
2022/05/29 06:18:13;;;;;;;10.52;2.15;;;10.80;99.90;;;;;;5032871;28;20057;-74
2022/05/29 06:20:38;;;;;;;13.27;2.42;;;10.90;99.90;;;;;;5029879;28;20482;-74
2022/05/29 06:23:04;;;;;;;12.88;2.40;;;10.90;99.90;;;;;;5047563;28;20049;-74
2022/05/29 06:25:30;;;;;;;12.68;2.10;;;10.90;99.90;;;;;;5031561;28;21464;-74
2022/05/29 06:27:55;;;;;;;14.00;2.15;;;10.90;99.90;;;;;;5031860;28;20048;-73
2022/05/29 06:30:21;;;;;;;12.52;2.33;;;10.90;99.90;;;;;;5032599;28;20053;-72
2022/05/29 06:32:47;;;;;;;11.13;2.60;;;11.00;99.90;;;;;;5016037;28;20037;-74
2022/05/29 06:35:14;;;;;;;8.35;1.88;;;11.00;99.90;;;;;;5031818;28;20079;-74
2022/05/29 06:37:40;;;;;;;13.52;2.10;;;11.00;99.90;;;;;;5031264;28;20029;-73
2022/05/29 06:40:08;;;;;;;12.80;2.35;;;11.10;99.90;;;;;;5030266;28;20486;-73
2022/05/29 06:42:35;;;;;;;11.80;2.15;;;11.10;99.90;;;;;;5032655;28;20097;-73
2022/05/29 06:45:01;;;;;;;14.55;2.58;;;11.20;99.90;;;;;;5048430;28;20034;-73
2022/05/29 06:47:27;;;;;;;14.38;2.10;;;11.20;99.90;;;;;;5014629;28;20033;-73
2022/05/29 06:49:53;;;;;;;10.95;2.00;;;11.30;99.90;;;;;;5032653;28;20041;-73
2022/05/29 06:52:18;;;;;;;11.23;2.47;;;11.30;99.90;;;;;;5015505;28;20041;-73
2022/05/29 06:54:45;;;;;;;10.98;2.25;;;11.30;99.90;;;;;;5048953;28;20099;-73
2022/05/29 06:57:12;;;;;;;9.45;2.05;;;11.40;99.90;;;;;;5009103;28;20042;-73
2022/05/29 07:07:55;;;;;;;;;;;11.50;99.90;;;;;;5048591;28;20100;-73
2022/05/29 07:10:21;;;;;;;7.22;1.80;;;11.40;99.90;;;;;;5012343;28;20320;-75
2022/05/29 07:12:47;;;;;;;10.07;1.90;;;11.50;99.90;;;;;;5015341;28;20405;-74
2022/05/29 07:15:15;;;;;;;13.35;2.30;;;11.50;99.90;;;;;;5014362;28;20405;-74
2022/05/29 07:17:40;;;;;;;9.40;2.30;;;11.40;99.90;;;;;;5015228;28;20037;-74
2022/05/29 07:20:07;;;;;;;10.52;1.88;;;11.40;99.90;;;;;;5030863;28;20091;-74
2022/05/29 07:22:33;;;;;;;13.27;2.35;;;11.40;99.90;;;;;;5048326;28;20116;-72
2022/05/29 07:24:58;;;;;;;12.00;1.90;;;11.50;99.90;;;;;;5026704;28;20497;-72
2022/05/29 07:27:24;;;;;;;9.90;1.88;;;11.50;99.90;;;;;;5026118;28;20064;-72
2022/05/29 07:29:51;;;;;;;8.52;1.80;;;11.50;99.90;;;;;;5030151;28;20417;-72
2022/05/29 07:32:16;;;;;;;10.85;2.00;;;11.50;99.90;;;;;;5022694;28;20398;-72
2022/05/29 07:34:44;;;;;;;11.02;2.28;;;11.50;99.90;;;;;;5023275;28;20041;-73
2022/05/29 07:37:13;;;;;;;12.20;1.70;;;11.40;99.90;;;;;;5030287;28;20517;-71
2022/05/29 07:39:42;;;;;;;12.50;2.15;;;11.40;99.90;;;;;;5027372;28;20058;-72
2022/05/29 07:44:53;;;;;;;10.40;2.40;;;11.50;99.90;;;;;;5046526;28;20433;-72
2022/05/29 07:47:23;;;;;;;9.63;1.60;;;11.50;99.90;;;;;;5015253;28;20045;-72
2022/05/29 07:49:49;;;;;;;10.48;1.73;;;11.40;99.90;;;;;;5029325;28;20068;-73
2022/05/29 07:52:15;;;;;;;9.13;1.60;;;11.40;99.90;;;;;;5027482;28;20029;-73
2022/05/29 07:54:40;;;;;;;8.77;3.15;;;11.40;99.90;;;;;;5031187;28;20037;-75
2022/05/29 07:57:06;;;;;;;12.45;2.03;;;11.40;99.90;;;;;;5021906;28;20045;-76
2022/05/29 07:59:32;;;;;;;11.90;1.90;;;11.40;99.90;;;;;;5030708;28;20421;-73
2022/05/29 08:01:57;;;;;;;9.20;1.60;;;11.50;99.90;;;;;;5027573;28;20366;-72
2022/05/29 08:04:23;;;;;;;9.10;1.50;;;11.50;99.90;;;;;;5025230;28;20397;-73
2022/05/29 08:06:49;;;;;;;7.55;1.60;;;11.50;99.90;;;;;;5030025;28;20045;-72
2022/05/29 08:09:16;;;;;;;8.07;1.48;;;11.50;99.90;;;;;;5027496;28;20452;-72
2022/05/29 08:11:42;;;;;;;10.25;1.80;;;11.60;99.90;;;;;;5029653;28;20081;-73
2022/05/29 08:14:07;;;;;;;7.95;1.70;;;11.70;99.90;;;;;;5030668;28;20099;-72
2022/05/29 08:16:34;;;;;;;10.60;1.55;;;11.70;99.90;;;;;;5010875;28;20041;-72
2022/05/29 08:19:00;;;;;;;7.47;1.42;;;11.70;99.90;;;;;;5012440;28;20069;-72
2022/05/29 08:21:25;;;;;;;8.70;1.52;;;11.70;99.90;;;;;;5029696;28;20038;-72
2022/05/29 08:32:03;;;;;;;6.13;1.27;;;11.80;99.90;;;;;;5046443;28;20049;-72
2022/05/29 08:34:29;;;;;;;9.20;1.52;;;11.90;99.90;;;;;;5030295;28;20455;-72
2022/05/29 08:36:55;;;;;;;8.82;1.48;;;11.90;99.90;;;;;;5030431;28;20132;-72
2022/05/29 08:39:22;;;;;;;7.82;1.60;;;11.90;99.90;;;;;;5029528;28;20532;-72
2022/05/29 08:41:52;;;;;;;4.80;1.30;;;11.80;99.90;;;;;;5011221;28;20069;-72
2022/05/29 08:44:29;;;;;;;4.35;1.50;;;12.00;99.90;;;;;;5027722;28;20087;-72
2022/05/29 08:47:00;;;;;;;5.05;1.20;;;12.00;99.90;;;;;;5014028;28;20436;-72
2022/05/29 08:49:30;;;;;;;9.45;1.20;;;12.00;99.90;;;;;;5028238;28;20038;-72
2022/05/29 08:52:12;;;;;;;6.45;1.10;;;11.90;99.90;;;;;;5036217;28;20045;-72
2022/05/29 08:54:56;;;;;;;4.53;1.30;;;12.00;99.90;;;;;;5013014;28;20041;-73
2022/05/29 08:57:44;;;;;;;5.78;0.90;;;11.80;99.90;;;;;;5014428;28;20139;-72
2022/05/29 09:00:13;;;;;;;6.85;1.15;;;11.70;99.90;;;;;;5028867;28;20041;-73
2022/05/29 09:03:16;;;;;;;5.00;1.00;;;11.60;99.90;;;;;;5027722;28;20038;-72
2022/05/29 09:06:00;;;;;;;6.65;1.27;;;11.70;99.90;;;;;;5031384;28;20486;-73
2022/05/29 09:08:35;;;;;;;7.05;1.40;;;11.80;99.90;;;;;;5031202;28;20112;-73
2022/05/29 09:11:06;;;;;;;9.90;1.52;;;11.70;99.90;;;;;;5015064;28;20041;-72
2022/05/29 09:13:40;;;;;;;8.57;1.73;;;11.60;99.90;;;;;;5031861;28;20033;-73
2022/05/29 09:16:19;;;;;;;9.18;1.20;;;11.60;99.90;;;;;;5017898;28;20041;-73
2022/05/29 09:19:13;;;;;;;9.30;1.60;;;11.60;99.90;;;;;;5018893;28;20037;-73
2022/05/29 09:21:42;;;;;;;7.40;1.55;;;11.70;99.90;;;;;;5033257;28;20054;-73
2022/05/29 09:24:18;;;;;;;9.07;1.40;;;11.70;99.90;;;;;;5033270;28;20038;-73
2022/05/29 09:26:43;;;;;;;9.10;1.55;;;11.80;99.90;;;;;;5033498;28;20438;-72
2022/05/29 09:29:10;;;;;;;9.25;1.55;;;11.70;99.90;;;;;;5034741;28;20084;-71
2022/05/29 09:31:38;;;;;;;7.22;1.45;;;11.70;99.90;;;;;;5016598;28;20049;-72
2022/05/29 09:34:04;;;;;;;8.60;1.27;;;11.70;99.90;;;;;;5016237;28;20046;-73
2022/05/29 09:36:54;;;;;;;10.20;2.55;;;11.70;99.90;;;;;;5026187;28;20085;-72
2022/05/29 09:39:25;;;;;;;5.85;1.20;;;11.70;99.90;;;;;;5015909;28;20510;-73
2022/05/29 09:42:07;;;;;;;5.60;1.08;;;11.70;99.90;;;;;;5031619;28;20458;-73
2022/05/29 09:44:33;;;;;;;5.65;1.02;;;11.80;99.90;;;;;;5032005;28;20572;-73
2022/05/29 09:49:49;;;;;;;5.68;0.85;;;11.90;99.90;;;;;;5043300;28;20077;-73
2022/05/29 09:52:20;;;;;;;;;;;12.00;99.90;;;;;;5034747;28;20524;-73
2022/05/29 09:55:03;;;;;;;8.15;1.40;;;12.10;99.90;;;;;;5014627;28;19917;-73
2022/05/29 09:57:49;;;;;;;7.85;1.20;;;12.10;99.90;;;;;;5020741;28;20742;-73
2022/05/29 10:00:27;;;;;;;7.13;1.40;;;12.10;99.90;;;;;;5011457;28;20044;-73
2022/05/29 10:02:54;;;;;;;6.97;1.20;;;12.10;99.90;;;;;;5031788;28;20080;-73
2022/05/29 10:05:33;;;;;;;6.95;1.42;;;12.00;99.90;;;;;;5037620;28;20038;-73
2022/05/29 10:08:16;;;;;;;10.18;1.40;;;12.00;99.90;;;;;;5016836;28;20132;-73
2022/05/29 10:10:42;;;;;;;8.23;1.48;;;11.80;99.90;;;;;;5032769;28;20044;-73
2022/05/29 10:13:07;;;;;;;5.93;1.33;;;11.80;99.90;;;;;;5030818;28;20401;-72
2022/05/29 10:15:41;;;;;;;9.30;1.40;;;11.80;99.90;;;;;;5039982;28;20037;-72
2022/05/29 10:18:33;;;;;;;6.63;1.40;;;11.80;99.90;;;;;;5029184;28;20029;-75
2022/05/29 10:21:15;;;;;;;8.85;1.83;;;11.80;99.90;;;;;;5041569;28;20040;-74
2022/05/29 10:23:47;;;;;;;9.02;1.30;;;11.80;99.90;;;;;;5014071;28;20120;-75
2022/05/29 10:26:23;;;;;;;8.45;1.65;;;11.90;99.90;;;;;;5041193;28;20025;-74
2022/05/29 10:28:49;;;;;;;8.30;1.70;;;12.00;99.90;;;;;;5029188;28;20049;-74
2022/05/29 10:31:25;;;;;;;8.82;1.83;;;12.20;99.90;;;;;;5015465;28;20531;-74
2022/05/29 10:34:08;;;;;;;9.23;1.98;;;12.20;99.90;;;;;;5032165;28;20389;-75
2022/05/29 10:36:36;;;;;;;9.85;1.70;;;12.20;99.90;;;;;;5015746;28;20087;-75
2022/05/29 10:39:35;;;;;;;14.40;2.20;;;12.10;99.90;;;;;;5029987;28;20058;-74
2022/05/29 10:42:01;;;;;;;11.88;2.03;;;12.20;99.90;;;;;;5006342;28;20080;-74
2022/05/29 10:44:44;;;;;;;7.72;1.45;;;12.20;99.90;;;;;;5031739;28;20061;-74
2022/05/29 10:47:38;;;;;;;9.07;1.40;;;12.30;99.90;;;;;;5016292;28;20064;-73
2022/05/29 10:50:25;;;;;;;9.20;1.30;;;12.30;99.90;;;;;;5030876;28;20045;-74
2022/05/29 10:52:54;;;;;;;7.47;1.67;;;12.10;99.90;;;;;;5047008;28;20409;-74
2022/05/29 10:55:27;;;;;;;7.15;1.35;;;12.20;99.90;;;;;;5031680;28;20072;-74
2022/05/29 10:58:02;;;;;;;5.68;1.40;;;12.30;99.90;;;;;;5016191;28;20041;-74
2022/05/29 11:00:51;;;;;;;8.85;1.45;;;12.30;99.90;;;;;;5030888;28;20044;-74
2022/05/29 11:03:41;;;;;;;8.23;1.67;;;12.30;99.90;;;;;;5031762;28;20037;-75
2022/05/29 11:06:25;;;;;;;7.85;1.27;;;12.20;99.90;;;;;;5031776;28;20179;-75
2022/05/29 11:09:17;;;;;;;8.43;1.83;;;12.20;99.90;;;;;;5014930;28;20052;-75
2022/05/29 11:12:11;;;;;;;6.03;1.52;;;12.30;99.90;;;;;;5031306;28;20041;-75
2022/05/29 11:14:55;;;;;;;6.53;1.45;;;12.20;99.90;;;;;;5005785;28;20436;-74
2022/05/29 11:17:32;;;;;;;8.90;1.48;;;12.40;99.90;;;;;;5029206;28;20091;-75
2022/05/29 11:20:28;;;;;;;7.80;1.63;;;12.50;99.90;;;;;;5029287;28;20129;-75
2022/05/29 11:23:17;;;;;;;6.28;1.17;;;12.40;99.90;;;;;;5030241;28;20038;-75
2022/05/29 11:25:51;;;;;;;6.43;1.30;;;12.40;99.90;;;;;;5024588;28;20044;-75
2022/05/29 11:28:59;;;;;;;6.63;1.17;;;12.30;99.90;;;;;;5016129;28;20422;-75
2022/05/29 11:31:43;;;;;;;8.75;1.40;;;12.10;99.90;;;;;;5011948;28;20057;-76
2022/05/29 11:34:29;;;;;;;11.82;1.52;;;12.10;99.90;;;;;;5020919;28;20520;-75
2022/05/29 11:37:26;;;;;;;7.88;1.40;;;11.90;99.90;;;;;;5045770;28;20092;-75
2022/05/29 11:40:08;;;;;;;8.38;1.67;;;11.90;99.90;;;;;;5029212;28;20053;-75
2022/05/29 11:42:50;;;;;;;5.40;1.35;;;12.00;99.90;;;;;;5047002;28;20037;-75
2022/05/29 11:51:07;;;;;;;;;;;12.00;99.90;;;;;;5026004;28;20029;-74
2022/05/29 11:51:18;;;;;;;6.97;1.30;;;12.00;99.90;;;;;;5030872;28;20041;-74
2022/05/29 11:54:01;;;;;;;6.25;1.17;;;12.00;99.90;;;;;;5030988;28;20034;-74
2022/05/29 11:56:35;;;;;;;8.93;1.20;;;12.00;99.90;;;;;;5027532;28;20041;-75
2022/05/29 11:59:31;;;;;;;5.32;1.58;;;12.10;99.90;;;;;;5030645;28;20089;-74
2022/05/29 12:02:26;;;;;;;8.77;1.50;;;12.10;99.90;;;;;;5014822;28;20098;-74
2022/05/29 12:05:13;;;;;;;8.05;1.40;;;12.20;99.90;;;;;;5030320;28;20564;-74
2022/05/29 12:07:45;;;;;;;8.55;1.45;;;12.30;99.90;;;;;;5030522;28;20077;-74
2022/05/29 12:10:15;;;;;;;;;;;12.40;99.90;;;;;;5044851;28;20962;-72
2022/05/29 12:12:46;;;;;;;11.02;1.60;;;12.40;99.90;;;;;;5014135;28;19917;-72
2022/05/29 12:15:21;;;;;;;10.98;1.80;;;12.50;99.90;;;;;;5025486;28;20582;-73
2022/05/29 12:17:57;;;;;;;6.55;1.30;;;12.50;99.90;;;;;;5031512;28;20394;-73
2022/05/29 12:20:44;;;;;;;10.73;1.70;;;12.60;99.90;;;;;;5015492;28;20156;-73
2022/05/29 12:23:28;;;;;;;8.38;1.60;;;12.70;99.90;;;;;;5040630;28;20084;-73
2022/05/29 12:25:58;;;;;;;10.85;1.75;;;12.80;99.90;;;;;;5027949;28;20056;-73
2022/05/29 12:28:43;;;;;;;10.73;2.05;;;12.70;99.90;;;;;;5030424;28;20528;-74
2022/05/29 12:31:30;;;;;;;8.27;1.30;;;12.70;99.90;;;;;;5030404;28;20049;-73
2022/05/29 12:33:56;;;;;;;8.88;1.73;;;12.70;99.90;;;;;;5028591;28;20045;-73
2022/05/29 12:36:34;;;;;;;9.00;1.67;;;12.70;99.90;;;;;;5031338;28;20390;-74
2022/05/29 12:39:43;;;;;;;8.77;1.70;;;12.60;99.90;;;;;;5002553;28;20092;-74
2022/05/29 12:42:36;;;;;;;9.32;1.48;;;12.60;99.90;;;;;;5034586;28;20453;-73
2022/05/29 12:45:07;;;;;;;;;;;12.50;99.90;;;;;;5024865;28;20042;-74
2022/05/29 12:48:10;;;;;;;8.23;1.55;;;12.40;99.90;;;;;;5031072;28;19917;-75
2022/05/29 12:51:00;;;;;;;8.95;1.52;;;12.30;99.90;;;;;;5025808;28;20516;-74
2022/05/29 12:54:03;;;;;;;9.02;1.77;;;12.30;99.90;;;;;;5048720;28;20063;-74
2022/05/29 12:56:48;;;;;;;;;;;12.30;99.90;;;;;;5029058;28;20045;-73
2022/05/29 12:59:32;;;;;;;8.88;1.90;;;12.30;99.90;;;;;;5035681;28;20332;-75
2022/05/29 13:02:07;;;;;;;7.00;1.50;;;12.20;99.90;;;;;;5025146;28;20502;-75
2022/05/29 13:04:51;;;;;;;4.55;1.20;;;12.30;99.90;;;;;;5029490;28;20430;-74
2022/05/29 13:07:58;;;;;;;9.05;1.30;;;12.30;99.90;;;;;;5022240;28;20033;-74
2022/05/29 13:10:33;;;;;;;7.78;1.35;;;12.30;99.90;;;;;;5032636;28;20494;-76
2022/05/29 13:13:13;;;;;;;7.15;1.70;;;12.30;99.90;;;;;;5032872;28;20038;-77
2022/05/29 13:15:41;;;;;;;7.05;1.17;;;12.30;99.90;;;;;;5021007;28;20041;-75
2022/05/29 13:18:39;;;;;;;7.25;1.20;;;12.40;99.90;;;;;;5030704;28;20030;-75
2022/05/29 13:21:15;;;;;;;6.75;1.00;;;12.60;99.90;;;;;;5032738;28;20080;-73
2022/05/29 13:23:53;;;;;;;6.57;1.45;;;12.80;99.90;;;;;;5017086;28;20077;-74
2022/05/29 13:26:24;;;;;;;7.53;1.60;;;12.80;99.90;;;;;;5031822;28;20051;-74
2022/05/29 13:28:59;;;;;;;10.18;1.65;;;12.80;99.90;;;;;;5016789;28;20033;-75
2022/05/29 13:31:26;;;;;;;6.32;1.30;;;12.80;99.90;;;;;;5023194;28;20486;-75
2022/05/29 13:33:54;;;;;;;13.30;1.67;;;12.80;99.90;;;;;;5041869;28;20493;-75
2022/05/29 13:36:49;;;;;;;5.18;1.13;;;12.70;99.90;;;;;;5016264;28;20038;-74
2022/05/29 13:39:24;;;;;;;9.93;1.52;;;12.70;99.90;;;;;;5031668;28;20052;-75
2022/05/29 13:41:52;;;;;;;8.35;1.50;;;12.60;99.90;;;;;;5021910;28;20442;-75
2022/05/29 13:44:28;;;;;;;6.88;1.40;;;12.60;99.90;;;;;;5028719;28;20069;-75
2022/05/29 13:47:19;;;;;;;9.45;1.83;;;12.60;99.90;;;;;;5016228;28;20390;-75
2022/05/29 13:49:57;;;;;;;12.02;1.98;;;12.60;99.90;;;;;;5015265;28;20461;-75